Strona główna
METAR-TAF:

METAR-TAF

Lotnisko :

Port lotniczy Siegen

Siegen, Niemcy

Szerokość geograficzna: 50-42-28N, Długość geograficzna: 008-04-59E, wysokość: 602 m

Aktualna obserwacja pogody

Raport powstał 20 minut temu, godzina 13:50 UTC
Wiatr 6 kt od wschodnio-południowy wschód, zmienny między wschodnio-północny wschód i południowo-południowy wschód
Temperatura 25°C
Wilgotność 36%
Ciśnienie 1022 hPa
Widzialność 10 km lub więcej
Brak chmur poniżej 1500 m i brak chmur cumulonimbus

METAR: EDGS 241350Z 11006KT 060V160 CAVOK 25/09 Q1022

czas: 16:10 (14:10 UTC)

Prognoza

Raport powstał 3 godziny i 10 minut temu, godzina 11:00 UTC
Prognoza ważna od 24 godzina 12 UTC do 24 godzina 21 UTC
Wiatr 6 kt od wschód
Widzialność 10 km lub więcej
Brak chmur poniżej 1500 m i brak chmur cumulonimbus

TAF: EDGS 241100Z 2412/2421 09006KT CAVOK

Obserwacja i prognoza pogody dla ponad 4000 lotnisk (raport METAR i TAF).

Dostępne stacje oznaczono żółtymi i czerwonymi punktami na mapie.

Najedź kursorem aby zobaczyć nazwę stacji.

Kliknij aby zobaczyć obserwacje i prognozy pogody.

Aby zmienić mapę: kliknij na zielony przycisk z czarnym krzyżykiem, aby powiększyć; na zielony przycisk z myślnikiem, aby pomniejszyć; na zielone strzałki, aby przejść do map sąsiednich.


METAR-TAF: